sensor_id;sensor_type;location;lat;lon;timestamp;P1;P2;P0
72854;PMS7003;60991;51.278;22.550;2022-12-13T00:00:11;13.00;13.00;9.67
72854;PMS7003;60991;51.278;22.550;2022-12-13T00:01:41;15.50;15.50;9.00
72854;PMS7003;60991;51.278;22.550;2022-12-13T00:03:12;13.00;10.67;7.00
72854;PMS7003;60991;51.278;22.550;2022-12-13T00:04:42;14.33;14.33;9.00
72854;PMS7003;60991;51.278;22.550;2022-12-13T00:06:12;9.50;9.50;6.75
72854;PMS7003;60991;51.278;22.550;2022-12-13T00:07:42;12.75;9.75;7.00
72854;PMS7003;60991;51.278;22.550;2022-12-13T00:09:13;17.00;13.00;9.00
72854;PMS7003;60991;51.278;22.550;2022-12-13T00:10:57;11.25;10.00;7.00
72854;PMS7003;60991;51.278;22.550;2022-12-13T00:12:28;10.00;9.50;7.00
72854;PMS7003;60991;51.278;22.550;2022-12-13T00:13:58;7.00;5.33;3.00
72854;PMS7003;60991;51.278;22.550;2022-12-13T00:15:29;11.75;9.25;7.00
72854;PMS7003;60991;51.278;22.550;2022-12-13T00:16:59;16.33;9.00;6.67
72854;PMS7003;60991;51.278;22.550;2022-12-13T00:18:29;20.67;12.67;7.67
72854;PMS7003;60991;51.278;22.550;2022-12-13T00:20:00;13.00;13.00;8.50
72854;PMS7003;60991;51.278;22.550;2022-12-13T00:21:31;19.75;13.50;9.00
72854;PMS7003;60991;51.278;22.550;2022-12-13T00:23:02;15.25;10.50;9.00
72854;PMS7003;60991;51.278;22.550;2022-12-13T00:24:32;12.00;9.67;6.67
72854;PMS7003;60991;51.278;22.550;2022-12-13T00:26:06;18.00;10.67;7.67
72854;PMS7003;60991;51.278;22.550;2022-12-13T00:27:39;11.50;10.75;6.00
72854;PMS7003;60991;51.278;22.550;2022-12-13T00:29:09;12.67;11.00;9.00
72854;PMS7003;60991;51.278;22.550;2022-12-13T00:30:40;8.75;8.00;6.00
72854;PMS7003;60991;51.278;22.550;2022-12-13T00:32:11;12.75;9.50;7.00
72854;PMS7003;60991;51.278;22.550;2022-12-13T00:33:41;14.00;10.50;6.25
72854;PMS7003;60991;51.278;22.550;2022-12-13T00:35:12;9.50;9.50;7.00
72854;PMS7003;60991;51.278;22.550;2022-12-13T00:36:42;12.00;6.33;4.00
72854;PMS7003;60991;51.278;22.550;2022-12-13T00:38:12;12.00;10.00;7.00
72854;PMS7003;60991;51.278;22.550;2022-12-13T00:39:42;15.67;9.67;7.00
72854;PMS7003;60991;51.278;22.550;2022-12-13T00:41:16;8.67;7.00;5.33
72854;PMS7003;60991;51.278;22.550;2022-12-13T00:42:51;9.25;9.25;6.75
72854;PMS7003;60991;51.278;22.550;2022-12-13T00:44:22;12.00;9.75;6.75
72854;PMS7003;60991;51.278;22.550;2022-12-13T00:45:52;6.75;3.75;1.00
72854;PMS7003;60991;51.278;22.550;2022-12-13T00:47:22;7.00;7.00;6.33
72854;PMS7003;60991;51.278;22.550;2022-12-13T00:48:56;15.33;12.00;6.33
72854;PMS7003;60991;51.278;22.550;2022-12-13T00:50:28;12.50;10.50;8.00
72854;PMS7003;60991;51.278;22.550;2022-12-13T00:51:58;18.67;11.67;7.00
72854;PMS7003;60991;51.278;22.550;2022-12-13T00:53:28;12.33;8.33;6.67
72854;PMS7003;60991;51.278;22.550;2022-12-13T00:54:58;11.67;9.67;6.67
72854;PMS7003;60991;51.278;22.550;2022-12-13T00:56:29;9.33;7.67;6.67
72854;PMS7003;60991;51.278;22.550;2022-12-13T00:58:00;18.25;10.00;6.00
72854;PMS7003;60991;51.278;22.550;2022-12-13T00:59:30;9.33;7.67;7.00
72854;PMS7003;60991;51.278;22.550;2022-12-13T01:01:01;12.33;10.00;6.67
72854;PMS7003;60991;51.278;22.550;2022-12-13T01:02:33;9.25;7.50;6.00
72854;PMS7003;60991;51.278;22.550;2022-12-13T01:04:04;14.50;9.00;6.00
72854;PMS7003;60991;51.278;22.550;2022-12-13T01:05:35;14.00;8.50;6.00
72854;PMS7003;60991;51.278;22.550;2022-12-13T01:07:05;9.33;7.00;4.00
72854;PMS7003;60991;51.278;22.550;2022-12-13T01:08:36;16.67;9.67;8.33
72854;PMS7003;60991;51.278;22.550;2022-12-13T01:10:06;12.25;11.75;7.00
72854;PMS7003;60991;51.278;22.550;2022-12-13T01:11:37;14.50;9.00;5.00
72854;PMS7003;60991;51.278;22.550;2022-12-13T01:13:07;9.00;7.00;5.33
72854;PMS7003;60991;51.278;22.550;2022-12-13T01:14:38;14.67;11.00;7.00
72854;PMS7003;60991;51.278;22.550;2022-12-13T01:16:09;11.00;7.50;6.00
72854;PMS7003;60991;51.278;22.550;2022-12-13T01:17:40;7.00;7.00;6.75
72854;PMS7003;60991;51.278;22.550;2022-12-13T01:19:11;8.33;4.00;1.67
72854;PMS7003;60991;51.278;22.550;2022-12-13T01:20:41;13.00;9.67;6.33
72854;PMS7003;60991;51.278;22.550;2022-12-13T01:22:11;11.00;10.00;6.00
72854;PMS7003;60991;51.278;22.550;2022-12-13T01:23:42;9.00;9.00;6.00
72854;PMS7003;60991;51.278;22.550;2022-12-13T01:25:13;10.50;9.00;6.50
72854;PMS7003;60991;51.278;22.550;2022-12-13T01:26:43;12.00;9.50;7.50
72854;PMS7003;60991;51.278;22.550;2022-12-13T01:28:13;10.00;8.00;4.00
72854;PMS7003;60991;51.278;22.550;2022-12-13T01:29:43;12.33;12.00;7.00
72854;PMS7003;60991;51.278;22.550;2022-12-13T01:31:14;13.00;10.00;8.33
72854;PMS7003;60991;51.278;22.550;2022-12-13T01:32:46;13.00;7.50;6.50
72854;PMS7003;60991;51.278;22.550;2022-12-13T01:34:17;10.00;10.00;8.33
72854;PMS7003;60991;51.278;22.550;2022-12-13T01:35:52;12.25;10.25;6.25
72854;PMS7003;60991;51.278;22.550;2022-12-13T01:37:29;13.50;8.00;7.25
72854;PMS7003;60991;51.278;22.550;2022-12-13T01:38:59;9.25;8.50;7.00
72854;PMS7003;60991;51.278;22.550;2022-12-13T01:40:29;12.00;6.67;4.00
72854;PMS7003;60991;51.278;22.550;2022-12-13T01:42:00;18.00;12.00;8.33
72854;PMS7003;60991;51.278;22.550;2022-12-13T01:45:26;15.00;11.50;9.00
72854;PMS7003;60991;51.278;22.550;2022-12-13T01:46:57;10.00;8.00;6.00
72854;PMS7003;60991;51.278;22.550;2022-12-13T01:48:28;9.33;8.33;6.00
72854;PMS7003;60991;51.278;22.550;2022-12-13T01:50:04;11.50;7.00;6.00
72854;PMS7003;60991;51.278;22.550;2022-12-13T01:51:43;13.00;10.00;9.00
72854;PMS7003;60991;51.278;22.550;2022-12-13T01:53:20;12.75;9.50;6.00
72854;PMS7003;60991;51.278;22.550;2022-12-13T01:54:54;15.50;9.00;6.00
72854;PMS7003;60991;51.278;22.550;2022-12-13T01:56:30;15.00;10.00;7.00
72854;PMS7003;60991;51.278;22.550;2022-12-13T01:58:05;22.50;12.25;7.50
72854;PMS7003;60991;51.278;22.550;2022-12-13T01:59:36;9.25;7.50;6.00
72854;PMS7003;60991;51.278;22.550;2022-12-13T02:01:10;11.75;7.00;6.50
72854;PMS7003;60991;51.278;22.550;2022-12-13T02:02:41;13.25;10.25;4.00
72854;PMS7003;60991;51.278;22.550;2022-12-13T02:04:11;17.00;11.00;6.50
72854;PMS7003;60991;51.278;22.550;2022-12-13T02:05:42;10.00;8.33;6.00
72854;PMS7003;60991;51.278;22.550;2022-12-13T02:07:19;12.50;9.00;7.00
72854;PMS7003;60991;51.278;22.550;2022-12-13T02:08:52;12.25;9.50;6.75
72854;PMS7003;60991;51.278;22.550;2022-12-13T02:10:23;9.25;9.00;7.00
72854;PMS7003;60991;51.278;22.550;2022-12-13T02:11:55;13.75;9.75;8.00
72854;PMS7003;60991;51.278;22.550;2022-12-13T02:13:25;8.67;7.00;4.00
72854;PMS7003;60991;51.278;22.550;2022-12-13T02:14:59;11.75;11.50;7.00
72854;PMS7003;60991;51.278;22.550;2022-12-13T02:19:12;13.00;10.25;7.75
72854;PMS7003;60991;51.278;22.550;2022-12-13T02:20:47;14.25;10.50;6.00
72854;PMS7003;60991;51.278;22.550;2022-12-13T02:24:14;10.50;9.25;5.50
72854;PMS7003;60991;51.278;22.550;2022-12-13T02:30:22;13.25;7.00;6.50
72854;PMS7003;60991;51.278;22.550;2022-12-13T02:33:45;12.25;9.50;6.50
72854;PMS7003;60991;51.278;22.550;2022-12-13T02:36:02;15.50;9.75;7.00
72854;PMS7003;60991;51.278;22.550;2022-12-13T02:37:23;12.50;7.50;6.00
72854;PMS7003;60991;51.278;22.550;2022-12-13T02:39:02;13.00;13.00;9.50
72854;PMS7003;60991;51.278;22.550;2022-12-13T02:40:49;14.50;12.00;6.75
72854;PMS7003;60991;51.278;22.550;2022-12-13T02:42:28;9.00;7.50;6.25
72854;PMS7003;60991;51.278;22.550;2022-12-13T02:44:13;15.25;11.50;9.50
72854;PMS7003;60991;51.278;22.550;2022-12-13T02:45:50;17.00;12.00;9.00
72854;PMS7003;60991;51.278;22.550;2022-12-13T02:47:24;16.00;12.50;9.25
72854;PMS7003;60991;51.278;22.550;2022-12-13T02:48:56;12.00;10.50;6.25
72854;PMS7003;60991;51.278;22.550;2022-12-13T02:50:28;16.25;15.25;9.00
72854;PMS7003;60991;51.278;22.550;2022-12-13T02:52:01;10.25;8.50;6.50
72854;PMS7003;60991;51.278;22.550;2022-12-13T02:53:32;11.00;9.00;5.50
72854;PMS7003;60991;51.278;22.550;2022-12-13T02:55:06;13.00;6.75;5.50
72854;PMS7003;60991;51.278;22.550;2022-12-13T02:56:38;9.50;6.75;6.00
72854;PMS7003;60991;51.278;22.550;2022-12-13T02:58:11;20.33;10.67;7.00
72854;PMS7003;60991;51.278;22.550;2022-12-13T02:59:42;14.50;9.25;7.00
72854;PMS7003;60991;51.278;22.550;2022-12-13T03:01:26;6.00;6.00;4.00
72854;PMS7003;60991;51.278;22.550;2022-12-13T03:04:46;10.50;8.50;6.75
72854;PMS7003;60991;51.278;22.550;2022-12-13T03:06:34;13.50;8.50;6.75
72854;PMS7003;60991;51.278;22.550;2022-12-13T03:08:26;13.25;9.75;8.50
72854;PMS7003;60991;51.278;22.550;2022-12-13T03:10:16;6.25;6.25;4.00
72854;PMS7003;60991;51.278;22.550;2022-12-13T03:12:09;10.00;5.50;3.25
72854;PMS7003;60991;51.278;22.550;2022-12-13T03:13:52;6.75;6.25;3.00
72854;PMS7003;60991;51.278;22.550;2022-12-13T03:17:02;8.50;6.00;3.00
72854;PMS7003;60991;51.278;22.550;2022-12-13T03:18:36;3.00;3.00;3.00
72854;PMS7003;60991;51.278;22.550;2022-12-13T03:20:08;7.50;4.00;3.00
72854;PMS7003;60991;51.278;22.550;2022-12-13T03:21:39;9.00;4.50;3.50
72854;PMS7003;60991;51.278;22.550;2022-12-13T03:23:11;5.50;4.00;3.00
72854;PMS7003;60991;51.278;22.550;2022-12-13T03:24:41;7.00;3.75;3.00
72854;PMS7003;60991;51.278;22.550;2022-12-13T03:26:16;4.00;3.00;2.50
72854;PMS7003;60991;51.278;22.550;2022-12-13T03:27:50;7.00;4.00;3.50
72854;PMS7003;60991;51.278;22.550;2022-12-13T03:29:20;7.75;6.00;4.00
72854;PMS7003;60991;51.278;22.550;2022-12-13T03:30:50;5.67;3.00;3.00
72854;PMS7003;60991;51.278;22.550;2022-12-13T03:32:21;6.33;3.33;2.33
72854;PMS7003;60991;51.278;22.550;2022-12-13T03:33:51;8.33;4.00;3.00
72854;PMS7003;60991;51.278;22.550;2022-12-13T03:35:21;3.00;1.00;1.00
72854;PMS7003;60991;51.278;22.550;2022-12-13T03:36:51;0.00;0.00;0.00
72854;PMS7003;60991;51.278;22.550;2022-12-13T03:38:22;3.00;1.00;1.00
72854;PMS7003;60991;51.278;22.550;2022-12-13T03:39:52;4.00;4.00;3.00
72854;PMS7003;60991;51.278;22.550;2022-12-13T03:41:24;4.75;2.50;2.00
72854;PMS7003;60991;51.278;22.550;2022-12-13T03:42:57;10.00;4.00;3.00
72854;PMS7003;60991;51.278;22.550;2022-12-13T03:44:27;8.00;5.00;2.50
72854;PMS7003;60991;51.278;22.550;2022-12-13T03:45:57;9.00;3.33;3.00
72854;PMS7003;60991;51.278;22.550;2022-12-13T03:47:27;9.00;6.00;3.67
72854;PMS7003;60991;51.278;22.550;2022-12-13T03:48:58;7.00;5.33;4.00
72854;PMS7003;60991;51.278;22.550;2022-12-13T03:50:28;5.33;2.33;1.67
72854;PMS7003;60991;51.278;22.550;2022-12-13T03:51:58;3.67;3.00;1.67
72854;PMS7003;60991;51.278;22.550;2022-12-13T03:53:28;9.67;6.00;4.00
72854;PMS7003;60991;51.278;22.550;2022-12-13T03:54:59;7.75;3.50;1.00
72854;PMS7003;60991;51.278;22.550;2022-12-13T03:56:29;6.50;3.50;3.00
72854;PMS7003;60991;51.278;22.550;2022-12-13T03:58:00;6.00;3.67;3.33
72854;PMS7003;60991;51.278;22.550;2022-12-13T03:59:30;9.25;3.25;1.50
72854;PMS7003;60991;51.278;22.550;2022-12-13T04:01:00;6.00;6.00;4.50
72854;PMS7003;60991;51.278;22.550;2022-12-13T04:02:30;5.50;3.75;3.00
72854;PMS7003;60991;51.278;22.550;2022-12-13T04:04:01;6.33;5.33;3.33
72854;PMS7003;60991;51.278;22.550;2022-12-13T04:05:31;8.67;4.67;3.67
72854;PMS7003;60991;51.278;22.550;2022-12-13T04:07:01;4.00;4.00;3.00
72854;PMS7003;60991;51.278;22.550;2022-12-13T04:08:32;6.00;6.00;3.67
72854;PMS7003;60991;51.278;22.550;2022-12-13T04:10:03;5.25;3.75;3.00
72854;PMS7003;60991;51.278;22.550;2022-12-13T04:11:34;14.25;7.75;4.50
72854;PMS7003;60991;51.278;22.550;2022-12-13T04:13:04;3.25;3.25;3.00
72854;PMS7003;60991;51.278;22.550;2022-12-13T04:14:34;4.50;4.50;3.00
72854;PMS7003;60991;51.278;22.550;2022-12-13T04:16:04;6.67;6.00;3.67
72854;PMS7003;60991;51.278;22.550;2022-12-13T04:17:35;8.25;5.00;3.00
72854;PMS7003;60991;51.278;22.550;2022-12-13T04:19:05;7.67;6.00;3.33
72854;PMS7003;60991;51.278;22.550;2022-12-13T04:20:35;9.00;6.00;3.33
72854;PMS7003;60991;51.278;22.550;2022-12-13T04:22:05;13.00;9.00;4.00
72854;PMS7003;60991;51.278;22.550;2022-12-13T04:23:36;9.67;7.00;4.00
72854;PMS7003;60991;51.278;22.550;2022-12-13T04:25:06;5.00;5.00;4.00
72854;PMS7003;60991;51.278;22.550;2022-12-13T04:26:37;7.50;6.25;1.50
72854;PMS7003;60991;51.278;22.550;2022-12-13T04:28:07;7.33;4.67;3.33
72854;PMS7003;60991;51.278;22.550;2022-12-13T04:29:37;6.75;6.75;4.00
72854;PMS7003;60991;51.278;22.550;2022-12-13T04:31:07;3.75;3.00;3.00
72854;PMS7003;60991;51.278;22.550;2022-12-13T04:32:37;7.00;4.00;3.33
72854;PMS7003;60991;51.278;22.550;2022-12-13T04:34:08;12.00;6.00;3.00
72854;PMS7003;60991;51.278;22.550;2022-12-13T04:35:38;8.00;3.25;3.00
72854;PMS7003;60991;51.278;22.550;2022-12-13T04:37:08;7.67;6.00;4.00
72854;PMS7003;60991;51.278;22.550;2022-12-13T04:38:38;4.33;3.67;3.00
72854;PMS7003;60991;51.278;22.550;2022-12-13T04:40:09;4.00;4.00;3.00
72854;PMS7003;60991;51.278;22.550;2022-12-13T04:41:40;12.00;9.75;6.25
72854;PMS7003;60991;51.278;22.550;2022-12-13T04:43:10;6.00;3.00;3.00
72854;PMS7003;60991;51.278;22.550;2022-12-13T04:44:40;14.33;8.33;5.33
72854;PMS7003;60991;51.278;22.550;2022-12-13T04:46:10;7.00;4.00;3.00
72854;PMS7003;60991;51.278;22.550;2022-12-13T04:47:41;6.75;5.00;4.00
72854;PMS7003;60991;51.278;22.550;2022-12-13T04:49:11;13.00;7.00;4.00
72854;PMS7003;60991;51.278;22.550;2022-12-13T04:50:41;6.00;4.00;4.00
72854;PMS7003;60991;51.278;22.550;2022-12-13T04:52:12;8.25;4.00;3.00
72854;PMS7003;60991;51.278;22.550;2022-12-13T04:53:42;6.50;6.50;5.50
72854;PMS7003;60991;51.278;22.550;2022-12-13T04:55:12;6.67;6.67;5.33
72854;PMS7003;60991;51.278;22.550;2022-12-13T04:56:42;8.00;6.50;4.50
72854;PMS7003;60991;51.278;22.550;2022-12-13T04:58:13;10.00;6.00;4.00
72854;PMS7003;60991;51.278;22.550;2022-12-13T04:59:43;8.50;6.50;5.00
72854;PMS7003;60991;51.278;22.550;2022-12-13T05:01:13;6.67;5.67;4.33
72854;PMS7003;60991;51.278;22.550;2022-12-13T05:02:43;7.00;7.00;6.00
72854;PMS7003;60991;51.278;22.550;2022-12-13T05:04:13;13.67;7.00;4.00
72854;PMS7003;60991;51.278;22.550;2022-12-13T05:05:44;10.00;7.00;6.00
72854;PMS7003;60991;51.278;22.550;2022-12-13T05:07:14;10.00;7.00;4.67
72854;PMS7003;60991;51.278;22.550;2022-12-13T05:08:44;5.33;3.67;1.00
72854;PMS7003;60991;51.278;22.550;2022-12-13T05:10:14;10.00;7.50;6.25
72854;PMS7003;60991;51.278;22.550;2022-12-13T05:11:45;10.00;8.00;6.75
72854;PMS7003;60991;51.278;22.550;2022-12-13T05:13:15;12.00;6.00;3.67
72854;PMS7003;60991;51.278;22.550;2022-12-13T05:14:46;6.00;4.00;3.33
72854;PMS7003;60991;51.278;22.550;2022-12-13T05:16:16;9.00;9.00;6.67
72854;PMS7003;60991;51.278;22.550;2022-12-13T05:17:46;11.33;7.00;6.00
72854;PMS7003;60991;51.278;22.550;2022-12-13T05:19:16;12.67;10.00;6.00
72854;PMS7003;60991;51.278;22.550;2022-12-13T05:20:46;9.00;6.67;6.00
72854;PMS7003;60991;51.278;22.550;2022-12-13T05:22:17;10.00;9.33;6.33
72854;PMS7003;60991;51.278;22.550;2022-12-13T05:23:47;11.00;9.25;6.00
72854;PMS7003;60991;51.278;22.550;2022-12-13T05:25:17;14.33;10.00;6.67
72854;PMS7003;60991;51.278;22.550;2022-12-13T05:26:47;9.67;8.67;6.67
72854;PMS7003;60991;51.278;22.550;2022-12-13T05:28:17;9.33;7.00;5.33
72854;PMS7003;60991;51.278;22.550;2022-12-13T05:29:48;9.25;6.00;4.00
72854;PMS7003;60991;51.278;22.550;2022-12-13T05:31:18;12.67;6.67;4.67
72854;PMS7003;60991;51.278;22.550;2022-12-13T05:32:48;16.33;11.33;6.00
72854;PMS7003;60991;51.278;22.550;2022-12-13T05:34:18;11.00;8.33;6.00
72854;PMS7003;60991;51.278;22.550;2022-12-13T05:35:49;12.00;9.67;8.33
72854;PMS7003;60991;51.278;22.550;2022-12-13T05:37:19;11.50;8.75;7.00
72854;PMS7003;60991;51.278;22.550;2022-12-13T05:38:50;19.00;12.00;9.00
72854;PMS7003;60991;51.278;22.550;2022-12-13T05:40:21;12.75;7.50;5.75
72854;PMS7003;60991;51.278;22.550;2022-12-13T05:41:52;16.00;10.50;6.25
72854;PMS7003;60991;51.278;22.550;2022-12-13T05:43:24;13.00;11.50;9.00
72854;PMS7003;60991;51.278;22.550;2022-12-13T05:44:54;12.50;10.50;9.00
72854;PMS7003;60991;51.278;22.550;2022-12-13T05:46:24;10.00;7.67;6.67
72854;PMS7003;60991;51.278;22.550;2022-12-13T05:47:54;15.67;10.33;6.67
72854;PMS7003;60991;51.278;22.550;2022-12-13T05:49:25;12.33;11.00;7.00
72854;PMS7003;60991;51.278;22.550;2022-12-13T05:50:55;18.00;12.00;9.00
72854;PMS7003;60991;51.278;22.550;2022-12-13T05:52:25;13.67;10.00;8.33
72854;PMS7003;60991;51.278;22.550;2022-12-13T05:53:55;16.00;12.00;6.67
72854;PMS7003;60991;51.278;22.550;2022-12-13T05:55:25;10.67;10.00;9.00
72854;PMS7003;60991;51.278;22.550;2022-12-13T05:56:56;16.00;10.00;7.00
72854;PMS7003;60991;51.278;22.550;2022-12-13T05:58:26;12.00;7.67;6.00
72854;PMS7003;60991;51.278;22.550;2022-12-13T05:59:56;8.75;8.75;6.75
72854;PMS7003;60991;51.278;22.550;2022-12-13T06:01:27;10.25;9.25;7.50
72854;PMS7003;60991;51.278;22.550;2022-12-13T06:02:57;17.33;13.67;9.00
72854;PMS7003;60991;51.278;22.550;2022-12-13T06:04:29;12.00;10.50;6.75
72854;PMS7003;60991;51.278;22.550;2022-12-13T06:05:59;19.75;13.50;6.50
72854;PMS7003;60991;51.278;22.550;2022-12-13T06:07:30;18.00;11.00;7.50
72854;PMS7003;60991;51.278;22.550;2022-12-13T06:09:01;13.00;9.50;7.50
72854;PMS7003;60991;51.278;22.550;2022-12-13T06:10:31;15.33;9.67;6.00
72854;PMS7003;60991;51.278;22.550;2022-12-13T06:12:01;9.33;8.33;6.67
72854;PMS7003;60991;51.278;22.550;2022-12-13T06:13:32;16.00;9.00;6.00
72854;PMS7003;60991;51.278;22.550;2022-12-13T06:15:03;15.00;11.75;8.00
72854;PMS7003;60991;51.278;22.550;2022-12-13T06:16:34;17.00;10.50;4.50
72854;PMS7003;60991;51.278;22.550;2022-12-13T06:18:04;21.67;16.67;11.33
72854;PMS7003;60991;51.278;22.550;2022-12-13T06:19:34;18.00;10.00;6.33
72854;PMS7003;60991;51.278;22.550;2022-12-13T06:21:05;13.33;10.67;7.00
72854;PMS7003;60991;51.278;22.550;2022-12-13T06:22:35;17.00;15.00;10.00
72854;PMS7003;60991;51.278;22.550;2022-12-13T06:24:06;15.67;12.00;7.67
72854;PMS7003;60991;51.278;22.550;2022-12-13T06:25:36;12.00;12.00;7.00
72854;PMS7003;60991;51.278;22.550;2022-12-13T06:27:06;12.33;8.67;6.33
72854;PMS7003;60991;51.278;22.550;2022-12-13T06:28:36;16.00;13.67;9.00
72854;PMS7003;60991;51.278;22.550;2022-12-13T06:30:07;22.00;13.33;9.67
72854;PMS7003;60991;51.278;22.550;2022-12-13T06:31:37;18.25;12.50;9.25
72854;PMS7003;60991;51.278;22.550;2022-12-13T06:33:08;16.33;11.67;7.67
72854;PMS7003;60991;51.278;22.550;2022-12-13T06:34:38;21.50;18.00;10.00
72854;PMS7003;60991;51.278;22.550;2022-12-13T06:36:08;11.67;8.33;6.00
72854;PMS7003;60991;51.278;22.550;2022-12-13T06:37:39;16.00;9.50;6.00
72854;PMS7003;60991;51.278;22.550;2022-12-13T06:39:09;19.67;13.00;9.00
72854;PMS7003;60991;51.278;22.550;2022-12-13T06:40:39;17.75;14.75;9.50
72854;PMS7003;60991;51.278;22.550;2022-12-13T06:42:13;18.00;13.00;9.00
72854;PMS7003;60991;51.278;22.550;2022-12-13T06:43:46;21.00;14.75;9.50
72854;PMS7003;60991;51.278;22.550;2022-12-13T06:45:17;15.75;12.75;9.25
72854;PMS7003;60991;51.278;22.550;2022-12-13T06:46:47;19.00;17.00;10.00
72854;PMS7003;60991;51.278;22.550;2022-12-13T06:48:17;13.67;13.67;10.00
72854;PMS7003;60991;51.278;22.550;2022-12-13T06:49:47;13.67;13.67;10.00
72854;PMS7003;60991;51.278;22.550;2022-12-13T06:51:17;22.00;17.33;10.00
72854;PMS7003;60991;51.278;22.550;2022-12-13T06:52:48;21.25;12.75;10.00
72854;PMS7003;60991;51.278;22.550;2022-12-13T06:54:18;21.00;15.33;12.00
72854;PMS7003;60991;51.278;22.550;2022-12-13T06:55:49;24.75;16.00;9.50
72854;PMS7003;60991;51.278;22.550;2022-12-13T06:57:19;21.33;20.00;11.33
72854;PMS7003;60991;51.278;22.550;2022-12-13T06:58:49;22.67;16.67;10.00
72854;PMS7003;60991;51.278;22.550;2022-12-13T07:00:19;33.33;18.67;12.33
72854;PMS7003;60991;51.278;22.550;2022-12-13T07:01:49;24.50;21.25;12.25
72854;PMS7003;60991;51.278;22.550;2022-12-13T07:03:20;20.33;15.00;9.67
72854;PMS7003;60991;51.278;22.550;2022-12-13T07:04:50;24.67;21.67;11.33
72854;PMS7003;60991;51.278;22.550;2022-12-13T07:06:21;32.50;15.00;10.75
72854;PMS7003;60991;51.278;22.550;2022-12-13T07:07:53;25.50;18.50;10.00
72854;PMS7003;60991;51.278;22.550;2022-12-13T07:09:23;17.00;15.67;12.00
72854;PMS7003;60991;51.278;22.550;2022-12-13T07:10:53;23.00;17.67;12.67
72854;PMS7003;60991;51.278;22.550;2022-12-13T07:12:23;28.00;14.33;12.00
72854;PMS7003;60991;51.278;22.550;2022-12-13T07:13:54;31.00;25.00;13.00
72854;PMS7003;60991;51.278;22.550;2022-12-13T07:15:25;29.75;21.75;10.00
72854;PMS7003;60991;51.278;22.550;2022-12-13T07:16:55;16.00;15.50;10.00
72854;PMS7003;60991;51.278;22.550;2022-12-13T07:18:27;22.50;15.50;12.50
72854;PMS7003;60991;51.278;22.550;2022-12-13T07:19:57;19.50;14.75;9.75
72854;PMS7003;60991;51.278;22.550;2022-12-13T07:21:28;18.33;17.33;10.00
72854;PMS7003;60991;51.278;22.550;2022-12-13T07:22:59;27.25;21.00;13.00
72854;PMS7003;60991;51.278;22.550;2022-12-13T07:24:29;16.67;14.33;9.00
72854;PMS7003;60991;51.278;22.550;2022-12-13T07:26:00;30.50;20.50;12.50
72854;PMS7003;60991;51.278;22.550;2022-12-13T07:27:30;19.75;14.00;9.00
72854;PMS7003;60991;51.278;22.550;2022-12-13T07:29:02;15.50;15.50;10.00
72854;PMS7003;60991;51.278;22.550;2022-12-13T07:30:36;18.25;15.50;9.75
72854;PMS7003;60991;51.278;22.550;2022-12-13T07:32:09;26.25;21.00;14.50
72854;PMS7003;60991;51.278;22.550;2022-12-13T07:33:40;23.00;18.50;11.00
72854;PMS7003;60991;51.278;22.550;2022-12-13T07:35:10;16.33;15.33;11.33
72854;PMS7003;60991;51.278;22.550;2022-12-13T07:36:40;22.33;18.33;11.33
72854;PMS7003;60991;51.278;22.550;2022-12-13T07:38:13;22.25;15.75;10.00
72854;PMS7003;60991;51.278;22.550;2022-12-13T07:39:43;20.67;15.67;10.00
72854;PMS7003;60991;51.278;22.550;2022-12-13T07:41:14;13.00;12.50;9.00
72854;PMS7003;60991;51.278;22.550;2022-12-13T07:42:48;21.00;18.33;10.00
72854;PMS7003;60991;51.278;22.550;2022-12-13T07:44:22;21.25;18.00;12.50
72854;PMS7003;60991;51.278;22.550;2022-12-13T07:45:53;20.25;19.25;11.00
72854;PMS7003;60991;51.278;22.550;2022-12-13T07:47:27;12.75;11.00;6.75
72854;PMS7003;60991;51.278;22.550;2022-12-13T07:48:59;18.50;17.00;11.50
72854;PMS7003;60991;51.278;22.550;2022-12-13T07:50:31;22.25;17.25;12.00
72854;PMS7003;60991;51.278;22.550;2022-12-13T07:52:01;18.00;12.00;8.50
72854;PMS7003;60991;51.278;22.550;2022-12-13T07:53:32;19.25;17.00;9.50
72854;PMS7003;60991;51.278;22.550;2022-12-13T07:55:03;23.50;14.00;9.00
72854;PMS7003;60991;51.278;22.550;2022-12-13T07:56:34;18.00;16.00;9.50
72854;PMS7003;60991;51.278;22.550;2022-12-13T07:58:06;23.50;17.00;9.75
72854;PMS7003;60991;51.278;22.550;2022-12-13T07:59:38;17.00;15.50;10.00
72854;PMS7003;60991;51.278;22.550;2022-12-13T08:01:08;20.33;16.00;10.00
72854;PMS7003;60991;51.278;22.550;2022-12-13T08:02:40;26.00;18.00;11.00
72854;PMS7003;60991;51.278;22.550;2022-12-13T08:04:10;22.00;18.00;9.75
72854;PMS7003;60991;51.278;22.550;2022-12-13T08:05:40;27.00;17.33;10.00
72854;PMS7003;60991;51.278;22.550;2022-12-13T08:07:10;22.00;17.67;11.33
72854;PMS7003;60991;51.278;22.550;2022-12-13T08:08:40;18.00;15.33;12.00
72854;PMS7003;60991;51.278;22.550;2022-12-13T08:10:11;20.00;14.50;9.25
72854;PMS7003;60991;51.278;22.550;2022-12-13T08:11:41;22.00;16.67;10.67
72854;PMS7003;60991;51.278;22.550;2022-12-13T08:13:11;16.67;13.67;10.00
72854;PMS7003;60991;51.278;22.550;2022-12-13T08:14:41;24.67;18.33;12.00
72854;PMS7003;60991;51.278;22.550;2022-12-13T08:16:12;14.00;14.00;8.67
72854;PMS7003;60991;51.278;22.550;2022-12-13T08:17:43;24.50;14.75;8.50
72854;PMS7003;60991;51.278;22.550;2022-12-13T08:19:13;22.00;18.00;10.50
72854;PMS7003;60991;51.278;22.550;2022-12-13T08:20:43;17.67;14.33;9.67
72854;PMS7003;60991;51.278;22.550;2022-12-13T08:22:13;14.33;9.67;6.33
72854;PMS7003;60991;51.278;22.550;2022-12-13T08:23:43;25.67;20.67;12.00
72854;PMS7003;60991;51.278;22.550;2022-12-13T08:25:14;19.00;15.33;10.00
72854;PMS7003;60991;51.278;22.550;2022-12-13T08:26:44;23.00;21.75;13.00
72854;PMS7003;60991;51.278;22.550;2022-12-13T08:28:14;17.00;13.75;9.00
72854;PMS7003;60991;51.278;22.550;2022-12-13T08:29:44;22.00;18.67;10.00
72854;PMS7003;60991;51.278;22.550;2022-12-13T08:31:15;22.00;16.67;10.00
72854;PMS7003;60991;51.278;22.550;2022-12-13T08:32:45;20.67;15.00;9.67
72854;PMS7003;60991;51.278;22.550;2022-12-13T08:34:18;16.25;12.25;10.00
72854;PMS7003;60991;51.278;22.550;2022-12-13T08:35:48;16.00;15.33;11.33
72854;PMS7003;60991;51.278;22.550;2022-12-13T08:37:18;16.33;14.00;10.00
72854;PMS7003;60991;51.278;22.550;2022-12-13T08:38:49;22.00;20.33;12.00
72854;PMS7003;60991;51.278;22.550;2022-12-13T08:40:19;27.00;18.50;11.00
72854;PMS7003;60991;51.278;22.550;2022-12-13T08:41:50;22.00;13.00;10.00
72854;PMS7003;60991;51.278;22.550;2022-12-13T08:43:20;24.33;22.00;12.00
72854;PMS7003;60991;51.278;22.550;2022-12-13T08:44:51;18.67;18.00;10.67
72854;PMS7003;60991;51.278;22.550;2022-12-13T08:46:22;23.50;18.75;13.00
72854;PMS7003;60991;51.278;22.550;2022-12-13T08:47:52;26.75;18.50;11.50
72854;PMS7003;60991;51.278;22.550;2022-12-13T08:49:25;22.25;15.25;9.75
72854;PMS7003;60991;51.278;22.550;2022-12-13T08:51:00;20.75;15.00;10.00
72854;PMS7003;60991;51.278;22.550;2022-12-13T08:52:32;22.25;14.75;9.00
72854;PMS7003;60991;51.278;22.550;2022-12-13T08:54:04;23.00;18.75;12.00